createdAt,value
2023-04-11T00:02:20.295Z,178.93
2023-04-11T00:04:47.449Z,176.20
2023-04-11T00:07:14.564Z,172.48
2023-04-11T00:09:41.687Z,162.13
2023-04-11T00:12:08.869Z,156.20
2023-04-11T00:14:38.648Z,160.48
2023-04-11T00:17:06.248Z,170.83
2023-04-11T00:19:33.633Z,177.52
2023-04-11T00:22:01.630Z,186.50
2023-04-11T00:24:29.312Z,199.25
2023-04-11T00:26:57.127Z,191.73
2023-04-11T00:29:24.225Z,199.05
2023-04-11T00:31:52.917Z,188.48
2023-04-11T00:34:20.146Z,184.43
2023-04-11T00:36:47.331Z,179.73
2023-04-11T00:39:14.547Z,177.93
2023-04-11T00:41:41.990Z,168.13
2023-04-11T00:44:10.973Z,168.25
2023-04-11T00:46:38.345Z,178.50
2023-04-11T00:49:05.418Z,179.82
2023-04-11T00:51:32.534Z,172.18
2023-04-11T00:54:01.412Z,172.60
2023-04-11T00:56:31.932Z,191.65
2023-04-11T00:58:59.375Z,175.85
2023-04-11T01:01:26.600Z,182.10
2023-04-11T01:03:54.021Z,175.88
2023-04-11T01:06:23.146Z,180.43
2023-04-11T01:08:50.301Z,179.07
2023-04-11T01:11:20.306Z,163.98
2023-04-11T01:13:47.556Z,171.98
2023-04-11T01:16:21.727Z,169.23
2023-04-11T01:18:54.640Z,158.05
2023-04-11T01:21:22.444Z,154.43
2023-04-11T01:23:52.825Z,145.50
2023-04-11T01:26:20.004Z,149.68
2023-04-11T01:28:47.099Z,145.95
2023-04-11T01:31:14.316Z,141.00
2023-04-11T01:33:43.501Z,146.55
2023-04-11T01:36:10.771Z,137.77
2023-04-11T01:38:39.353Z,133.98
2023-04-11T01:41:07.150Z,134.85
2023-04-11T01:43:34.426Z,125.22
2023-04-11T01:46:01.695Z,138.93
2023-04-11T01:48:29.014Z,131.15
2023-04-11T01:50:56.553Z,130.32
2023-04-11T01:53:23.687Z,130.18
2023-04-11T01:55:50.894Z,123.07
2023-04-11T01:58:18.020Z,122.47
2023-04-11T02:00:45.166Z,123.15
2023-04-11T02:03:31.034Z,121.90
2023-04-11T02:05:58.245Z,117.95
2023-04-11T02:08:25.572Z,121.50
2023-04-11T02:10:52.691Z,121.97
2023-04-11T02:13:19.718Z,120.45
2023-04-11T02:16:31.598Z,117.03
2023-04-11T02:21:39.612Z,124.75
2023-04-11T02:24:07.831Z,125.80
2023-04-11T02:26:34.899Z,116.15
2023-04-11T02:29:02.171Z,121.65
2023-04-11T02:31:29.539Z,119.32
2023-04-11T02:33:56.683Z,129.73
2023-04-11T02:36:23.742Z,120.65
2023-04-11T02:38:51.033Z,123.22
2023-04-11T02:41:18.151Z,124.72
2023-04-11T02:43:45.548Z,122.90
2023-04-11T02:46:13.462Z,129.73
2023-04-11T02:48:41.063Z,129.88
2023-04-11T02:51:08.445Z,132.70
2023-04-11T02:53:36.447Z,133.02
2023-04-11T02:56:03.598Z,134.00
2023-04-11T02:58:30.843Z,132.32
2023-04-11T03:00:57.908Z,132.65
2023-04-11T03:03:25.146Z,128.75
2023-04-11T03:05:52.392Z,118.90
2023-04-11T03:08:19.467Z,127.00
2023-04-11T03:10:46.526Z,122.10
2023-04-11T03:13:13.737Z,118.68
2023-04-11T03:15:41.933Z,125.45
2023-04-11T03:18:09.092Z,122.75
2023-04-11T03:20:36.142Z,123.40
2023-04-11T03:23:03.259Z,122.55
2023-04-11T03:25:30.365Z,132.18
2023-04-11T03:27:57.652Z,133.50
2023-04-11T03:30:24.970Z,125.47
2023-04-11T03:32:53.218Z,120.18
2023-04-11T03:35:21.013Z,123.45
2023-04-11T03:37:49.514Z,118.88
2023-04-11T03:40:18.870Z,126.03
2023-04-11T03:42:49.587Z,130.82
2023-04-11T03:45:17.252Z,133.93
2023-04-11T03:47:44.577Z,135.07
2023-04-11T03:50:11.802Z,133.13
2023-04-11T03:52:38.840Z,134.60
2023-04-11T03:55:06.356Z,129.65
2023-04-11T03:57:33.413Z,134.02
2023-04-11T04:00:01.242Z,133.77
2023-04-11T04:02:28.483Z,128.85
2023-04-11T04:04:56.016Z,125.38
2023-04-11T04:07:26.757Z,127.32
2023-04-11T04:09:54.077Z,139.70
2023-04-11T04:12:21.569Z,142.32
2023-04-11T04:14:48.746Z,136.20
2023-04-11T04:17:17.685Z,123.28
2023-04-11T04:19:44.905Z,124.05
2023-04-11T04:22:12.454Z,113.07
2023-04-11T04:24:42.284Z,126.70
2023-04-11T04:27:09.468Z,122.28
2023-04-11T04:29:46.480Z,140.07
2023-04-11T04:32:21.044Z,125.20
2023-04-11T04:34:55.268Z,119.53
2023-04-11T04:37:24.361Z,114.15
2023-04-11T04:39:54.328Z,124.53
2023-04-11T04:42:22.612Z,93.85
2023-04-11T04:44:50.541Z,133.40
2023-04-11T04:47:17.855Z,123.88
2023-04-11T04:49:45.146Z,114.38
2023-04-11T04:52:15.750Z,122.90
2023-04-11T04:57:10.311Z,146.85
2023-04-11T04:59:37.407Z,141.23
2023-04-11T05:02:04.587Z,147.68
2023-04-11T05:04:34.478Z,130.05
2023-04-11T05:07:01.834Z,122.13
2023-04-11T05:09:29.310Z,121.78
2023-04-11T05:11:56.930Z,121.57
2023-04-11T05:14:24.036Z,134.98
2023-04-11T05:16:51.496Z,120.93
2023-04-11T05:19:18.553Z,118.55
2023-04-11T05:21:45.584Z,118.97
2023-04-11T05:24:12.699Z,150.32
2023-04-11T05:26:39.851Z,173.57
2023-04-11T05:29:06.917Z,134.77
2023-04-11T05:31:34.026Z,122.20
2023-04-11T05:34:01.346Z,149.13
2023-04-11T05:36:28.727Z,145.63
2023-04-11T05:38:56.124Z,151.50
2023-04-11T05:41:23.587Z,153.88
2023-04-11T05:43:51.110Z,156.52
2023-04-11T05:46:25.982Z,146.55
2023-04-11T05:48:53.103Z,137.30
2023-04-11T05:51:23.005Z,132.30
2023-04-11T05:53:50.106Z,126.82
2023-04-11T05:56:20.018Z,138.18
2023-04-11T05:58:59.047Z,162.93
2023-04-11T06:01:26.358Z,144.55
2023-04-11T06:03:53.627Z,144.07
2023-04-11T06:06:21.005Z,145.95
2023-04-11T06:08:48.394Z,151.68
2023-04-11T06:11:16.938Z,129.43
2023-04-11T06:13:44.018Z,135.40
2023-04-11T06:16:11.372Z,133.93
2023-04-11T06:18:38.498Z,135.25
2023-04-11T06:21:05.929Z,144.00
2023-04-11T06:23:33.064Z,121.88
2023-04-11T06:26:00.219Z,116.70
2023-04-11T06:28:27.631Z,116.50
2023-04-11T06:30:55.119Z,113.25
2023-04-11T06:33:23.792Z,127.00
2023-04-11T06:35:51.186Z,122.68
2023-04-11T06:38:18.618Z,131.07
2023-04-11T06:40:46.307Z,168.57
2023-04-11T06:43:13.583Z,177.60
2023-04-11T06:45:40.888Z,148.60
2023-04-11T06:48:09.130Z,121.13
2023-04-11T06:50:42.227Z,117.32
2023-04-11T06:53:09.985Z,119.60
2023-04-11T06:55:40.396Z,117.18
2023-04-11T06:58:10.382Z,118.00
2023-04-11T07:00:39.104Z,128.00
2023-04-11T07:03:09.728Z,122.25
2023-04-11T07:05:39.854Z,108.75
2023-04-11T07:08:13.707Z,105.78
2023-04-11T07:10:42.594Z,93.70
2023-04-11T07:13:12.665Z,92.15
2023-04-11T07:15:40.594Z,87.78
2023-04-11T07:18:08.224Z,92.72
2023-04-11T07:20:40.006Z,87.90
2023-04-11T07:23:08.935Z,80.10
2023-04-11T07:25:40.145Z,80.20
2023-04-11T07:28:13.951Z,78.72
2023-04-11T07:30:43.432Z,77.15
2023-04-11T07:33:11.510Z,69.80
2023-04-11T07:35:43.423Z,66.78
2023-04-11T07:38:12.398Z,55.33
2023-04-11T07:40:40.377Z,59.38
2023-04-11T07:43:09.317Z,58.58
2023-04-11T07:45:37.308Z,61.40
2023-04-11T07:48:04.805Z,54.50
2023-04-11T07:50:32.009Z,54.25
2023-04-11T07:53:01.701Z,49.95
2023-04-11T07:55:29.184Z,46.22
2023-04-11T07:57:56.385Z,41.70
2023-04-11T08:03:08.402Z,35.33
2023-04-11T08:05:36.469Z,32.88
2023-04-11T08:08:04.918Z,33.97
2023-04-11T08:10:32.319Z,37.58
2023-04-11T08:12:59.983Z,34.05
2023-04-11T08:15:27.538Z,37.63
2023-04-11T08:17:58.605Z,40.63
2023-04-11T08:20:26.791Z,40.17
2023-04-11T08:22:54.755Z,40.67
2023-04-11T08:25:23.955Z,35.58
2023-04-11T08:27:51.360Z,34.45
2023-04-11T08:30:18.574Z,34.08
2023-04-11T08:32:46.043Z,28.10
2023-04-11T08:35:13.198Z,25.48
2023-04-11T08:37:40.554Z,25.25
2023-04-11T08:40:41.630Z,25.38
2023-04-11T08:43:12.381Z,25.77
2023-04-11T08:45:40.539Z,21.95
2023-04-11T08:48:08.299Z,22.75
2023-04-11T08:50:42.510Z,22.05
2023-04-11T08:53:14.090Z,22.38
2023-04-11T08:55:47.973Z,20.80
2023-04-11T08:58:15.874Z,19.30
2023-04-11T09:00:43.390Z,23.48
2023-04-11T09:03:12.267Z,20.83
2023-04-11T09:05:41.102Z,19.58
2023-04-11T09:08:09.803Z,20.17
2023-04-11T09:10:38.154Z,26.10
2023-04-11T09:13:24.433Z,25.85
2023-04-11T09:16:09.718Z,28.05
2023-04-11T09:18:41.529Z,23.35
2023-04-11T09:21:12.947Z,19.35
2023-04-11T09:23:41.246Z,17.38
2023-04-11T09:26:09.480Z,16.65
2023-04-11T09:28:52.657Z,16.30
2023-04-11T09:31:25.783Z,17.33
2023-04-11T09:33:55.107Z,17.88
2023-04-11T09:36:27.413Z,20.98
2023-04-11T09:39:17.340Z,18.95
2023-04-11T09:41:46.003Z,18.48
2023-04-11T09:44:13.760Z,16.90
2023-04-11T09:46:57.766Z,15.35
2023-04-11T09:49:30.251Z,15.70
2023-04-11T09:51:58.785Z,14.48
2023-04-11T09:54:28.532Z,15.52
2023-04-11T09:56:58.554Z,14.60
2023-04-11T09:59:28.944Z,13.32
2023-04-11T10:01:57.511Z,14.13
2023-04-11T10:04:29.003Z,14.10
2023-04-11T10:07:17.271Z,13.95
2023-04-11T10:09:44.683Z,15.02
2023-04-11T10:12:13.695Z,14.27
2023-04-11T10:14:53.504Z,13.88
2023-04-11T10:17:24.279Z,12.57
2023-04-11T10:34:13.709Z,17.25
2023-04-11T10:37:07.948Z,16.83
2023-04-11T10:45:32.225Z,19.27
2023-04-11T10:48:25.801Z,18.23
2023-04-11T10:50:53.170Z,16.13
2023-04-11T10:53:37.472Z,13.57
2023-04-11T10:56:05.100Z,13.15
2023-04-11T10:58:59.183Z,12.73
2023-04-11T11:01:31.979Z,14.02
2023-04-11T11:04:06.373Z,12.75
2023-04-11T11:06:50.990Z,12.00
2023-04-11T11:09:26.835Z,12.25
2023-04-11T11:12:10.377Z,14.02
2023-04-11T11:14:38.318Z,11.57
2023-04-11T11:17:06.864Z,11.40
2023-04-11T11:19:34.854Z,10.35
2023-04-11T11:22:06.659Z,10.95
2023-04-11T11:24:33.905Z,10.32
2023-04-11T11:27:01.090Z,10.20
2023-04-11T11:29:35.405Z,11.25
2023-04-11T11:32:04.624Z,11.98
2023-04-11T11:34:33.035Z,14.77
2023-04-11T11:37:09.167Z,12.52
2023-04-11T11:39:36.555Z,16.90
2023-04-11T11:42:12.202Z,14.23
2023-04-11T11:45:18.432Z,12.57
2023-04-11T11:52:04.342Z,13.18
2023-04-11T11:54:33.940Z,12.40
2023-04-11T11:57:05.195Z,20.65
2023-04-11T11:59:34.421Z,13.27
2023-04-11T12:21:58.496Z,11.77
2023-04-11T12:24:28.920Z,9.93
2023-04-11T12:27:06.263Z,16.08
2023-04-11T13:02:27.147Z,11.27
2023-04-11T13:04:55.687Z,18.98
2023-04-11T13:07:25.058Z,17.13
2023-04-11T13:09:53.646Z,17.25
2023-04-11T13:12:21.188Z,11.68
2023-04-11T13:14:54.020Z,13.07
2023-04-11T13:17:21.645Z,10.18
2023-04-11T13:19:49.157Z,11.73
2023-04-11T13:22:16.542Z,14.35
2023-04-11T13:24:43.824Z,11.15
2023-04-11T13:27:11.219Z,9.63
2023-04-11T13:29:40.172Z,9.65
2023-04-11T13:32:07.705Z,8.95
2023-04-11T13:34:36.421Z,10.93
2023-04-11T13:37:08.616Z,9.35
2023-04-11T13:39:48.954Z,12.90
2023-04-11T13:42:16.768Z,10.90
2023-04-11T13:44:45.605Z,13.50
2023-04-11T13:47:13.713Z,10.65
2023-04-11T13:53:23.047Z,12.80
2023-04-11T13:55:52.487Z,15.75
2023-04-11T13:58:20.107Z,12.20
2023-04-11T14:00:53.582Z,12.88
2023-04-11T14:03:21.398Z,14.00
2023-04-11T14:09:16.548Z,15.57
2023-04-11T14:11:50.505Z,11.02
2023-04-11T14:14:17.863Z,9.35
2023-04-11T14:16:57.056Z,9.68
2023-04-11T14:19:26.155Z,9.02
2023-04-11T14:21:55.844Z,11.13
2023-04-11T14:24:26.625Z,11.05
2023-04-11T14:26:53.999Z,13.00
2023-04-11T14:29:27.476Z,9.80
2023-04-11T14:31:58.255Z,10.88
2023-04-11T14:34:29.226Z,8.77
2023-04-11T14:39:45.599Z,11.38
2023-04-11T14:42:13.605Z,13.35
2023-04-11T14:44:53.523Z,7.90
2023-04-11T14:47:25.173Z,8.70
2023-04-11T14:49:56.105Z,9.30
2023-04-11T14:52:55.001Z,14.98
2023-04-11T14:55:56.299Z,11.25
2023-04-11T14:58:28.607Z,7.85
2023-04-11T15:00:58.600Z,7.60
2023-04-11T15:03:34.026Z,6.90
2023-04-11T15:06:21.551Z,10.50
2023-04-11T15:09:21.495Z,8.52
2023-04-11T15:11:53.869Z,8.63
2023-04-11T15:14:39.920Z,13.52
2023-04-11T15:17:07.779Z,9.55
2023-04-11T15:19:35.189Z,8.40
2023-04-11T15:22:03.669Z,11.40
2023-04-11T15:24:31.179Z,11.20
2023-04-11T15:27:01.619Z,9.95
2023-04-11T15:29:29.426Z,8.88
2023-04-11T15:31:59.784Z,10.93
2023-04-11T15:34:28.343Z,12.05
2023-04-11T15:36:57.052Z,10.88
2023-04-11T15:39:24.296Z,22.58
2023-04-11T15:41:52.626Z,15.65
2023-04-11T15:44:20.114Z,9.73
2023-04-11T15:46:49.331Z,10.48
2023-04-11T15:49:17.663Z,9.60
2023-04-11T15:51:46.618Z,12.98
2023-04-11T15:54:14.022Z,10.52
2023-04-11T15:56:41.210Z,11.00
2023-04-11T15:59:11.694Z,10.63
2023-04-11T16:01:40.571Z,8.73
2023-04-11T16:04:09.238Z,8.88
2023-04-11T16:06:38.221Z,9.23
2023-04-11T16:09:05.561Z,11.02
2023-04-11T16:11:33.870Z,10.35
2023-04-11T16:14:01.274Z,10.27
2023-04-11T16:16:32.033Z,11.73
2023-04-11T16:19:00.150Z,17.10
2023-04-11T16:21:27.628Z,15.10
2023-04-11T16:24:23.247Z,17.77
2023-04-11T16:26:48.474Z,16.42
2023-04-11T16:29:42.662Z,14.55
2023-04-11T16:32:32.119Z,13.35
2023-04-11T16:35:00.355Z,15.15
2023-04-11T16:37:36.729Z,19.88
2023-04-11T16:40:15.478Z,17.83
2023-04-11T16:45:46.958Z,30.38
2023-04-11T16:48:18.181Z,37.10
2023-04-11T16:53:12.657Z,100.38
2023-04-11T16:55:40.318Z,149.40
2023-04-11T16:58:08.903Z,99.60
2023-04-11T17:00:36.971Z,74.40
2023-04-11T17:03:04.628Z,84.57
2023-04-11T17:05:35.043Z,83.30
2023-04-11T17:08:02.373Z,80.70
2023-04-11T17:10:29.910Z,111.68
2023-04-11T17:12:58.724Z,115.53
2023-04-11T17:15:26.677Z,125.65
2023-04-11T17:17:54.737Z,107.70
2023-04-11T17:20:22.669Z,90.95
2023-04-11T17:22:50.213Z,90.63
2023-04-11T17:25:17.689Z,80.00
2023-04-11T17:27:44.960Z,77.97
2023-04-11T17:30:12.581Z,78.10
2023-04-11T17:32:45.875Z,75.50
2023-04-11T17:35:13.316Z,88.03
2023-04-11T17:37:40.492Z,86.90
2023-04-11T17:40:13.513Z,82.40
2023-04-11T17:42:41.359Z,81.28
2023-04-11T17:47:43.552Z,83.07
2023-04-11T17:50:11.898Z,74.72
2023-04-11T17:52:44.018Z,83.57
2023-04-11T17:55:13.146Z,90.28
2023-04-11T17:57:40.832Z,95.32
2023-04-11T18:00:18.018Z,90.75
2023-04-11T18:02:46.977Z,93.88
2023-04-11T18:05:23.154Z,96.35
2023-04-11T18:07:54.385Z,103.32
2023-04-11T18:10:22.237Z,110.07
2023-04-11T18:12:51.362Z,108.55
2023-04-11T18:15:24.826Z,119.45
2023-04-11T18:17:54.388Z,109.63
2023-04-11T18:20:25.409Z,119.47
2023-04-11T18:22:59.588Z,120.70
2023-04-11T18:25:27.174Z,129.60
2023-04-11T18:27:54.445Z,137.88
2023-04-11T18:30:21.589Z,153.05
2023-04-11T18:32:50.984Z,160.80
2023-04-11T18:35:18.768Z,131.10
2023-04-11T18:37:46.095Z,142.05
2023-04-11T18:40:14.407Z,142.77
2023-04-11T18:42:43.030Z,147.10
2023-04-11T18:45:12.112Z,177.20
2023-04-11T18:47:59.343Z,209.43
2023-04-11T18:50:27.798Z,173.65
2023-04-11T18:52:56.638Z,196.20
2023-04-11T18:55:25.421Z,192.85
2023-04-11T18:57:57.950Z,198.52
2023-04-11T19:00:29.831Z,193.15
2023-04-11T19:02:57.942Z,196.18
2023-04-11T19:05:25.911Z,204.30
2023-04-11T19:07:54.901Z,207.77
2023-04-11T19:10:22.602Z,197.02
2023-04-11T19:12:50.207Z,196.75
2023-04-11T19:15:17.476Z,197.57
2023-04-11T19:17:44.789Z,197.25
2023-04-11T19:20:17.203Z,195.00
2023-04-11T19:22:46.494Z,192.07
2023-04-11T19:25:14.698Z,187.82
2023-04-11T19:27:42.722Z,187.95
2023-04-11T19:30:14.327Z,201.10
2023-04-11T19:32:43.909Z,239.65
2023-04-11T19:35:11.724Z,276.90
2023-04-11T19:37:39.787Z,276.15
2023-04-11T19:40:07.913Z,270.23
2023-04-11T19:42:37.413Z,264.15
2023-04-11T19:45:05.274Z,266.52
2023-04-11T19:47:33.164Z,278.33
2023-04-11T19:50:01.242Z,288.70
2023-04-11T19:52:28.922Z,283.58
2023-04-11T19:54:56.649Z,258.80
2023-04-11T19:57:25.956Z,270.58
2023-04-11T19:59:53.169Z,274.40
2023-04-11T20:02:21.771Z,258.55
2023-04-11T20:04:49.799Z,276.75
2023-04-11T20:07:18.012Z,272.08
2023-04-11T20:09:45.715Z,267.27
2023-04-11T20:12:13.375Z,266.13
2023-04-11T20:14:44.153Z,259.15
2023-04-11T20:17:11.613Z,257.05
2023-04-11T20:19:42.051Z,243.68
2023-04-11T20:22:13.661Z,256.13
2023-04-11T20:24:41.636Z,235.55
2023-04-11T20:27:19.338Z,258.20
2023-04-11T20:29:46.872Z,272.90
2023-04-11T20:32:14.310Z,253.10
2023-04-11T20:34:41.534Z,255.05
2023-04-11T20:37:09.552Z,248.38
2023-04-11T20:39:37.671Z,245.70
2023-04-11T20:42:08.611Z,237.55
2023-04-11T20:44:38.602Z,225.57
2023-04-11T20:47:07.730Z,225.68
2023-04-11T20:49:37.882Z,240.57
2023-04-11T20:52:07.728Z,242.80
2023-04-11T20:54:47.254Z,242.68
2023-04-11T20:57:15.112Z,242.10
2023-04-11T21:00:07.436Z,242.45
2023-04-11T21:02:37.911Z,245.30
2023-04-11T21:07:33.815Z,240.57
2023-04-11T21:10:02.038Z,235.00
2023-04-11T21:12:29.645Z,232.60
2023-04-11T21:14:59.157Z,244.45
2023-04-11T21:17:26.588Z,244.80
2023-04-11T21:19:54.270Z,236.07
2023-04-11T21:22:21.859Z,228.52
2023-04-11T21:24:49.329Z,225.75
2023-04-11T21:27:16.924Z,215.75
2023-04-11T21:29:44.263Z,211.60
2023-04-11T21:32:11.932Z,205.20
2023-04-11T21:34:39.270Z,225.25
2023-04-11T21:37:06.680Z,231.35
2023-04-11T21:39:34.105Z,255.73
2023-04-11T21:42:01.664Z,246.98
2023-04-11T21:44:31.383Z,252.65
2023-04-11T21:46:59.931Z,250.07
2023-04-11T21:49:27.400Z,255.45
2023-04-11T21:51:55.153Z,241.07
2023-04-11T21:54:22.445Z,250.50
2023-04-11T21:56:50.047Z,245.35
2023-04-11T21:59:19.710Z,252.45
2023-04-11T22:01:48.495Z,253.15
2023-04-11T22:04:18.286Z,258.98
2023-04-11T22:06:48.777Z,259.23
2023-04-11T22:09:16.326Z,251.02
2023-04-11T22:11:43.628Z,243.63
2023-04-11T22:14:16.459Z,237.30
2023-04-11T22:16:49.604Z,228.57
2023-04-11T22:19:18.310Z,244.23
2023-04-11T22:21:49.058Z,233.50
2023-04-11T22:26:50.876Z,206.30
2023-04-11T22:29:18.677Z,209.45
2023-04-11T22:31:47.853Z,228.18
2023-04-11T22:34:15.057Z,226.90
2023-04-11T22:36:43.348Z,232.30
2023-04-11T22:39:10.822Z,210.07
2023-04-11T22:41:39.166Z,188.40
2023-04-11T22:44:06.863Z,115.00
2023-04-11T22:46:39.099Z,57.25
2023-04-11T22:49:07.076Z,52.47
2023-04-11T22:51:34.676Z,45.85
2023-04-11T22:54:02.677Z,46.53
2023-04-11T22:56:29.811Z,56.85
2023-04-11T22:59:06.676Z,90.63
2023-04-11T23:01:46.397Z,115.63
2023-04-11T23:07:40.939Z,130.25
2023-04-11T23:19:45.413Z,108.35
2023-04-11T23:22:58.137Z,89.15
2023-04-11T23:25:27.213Z,95.30
2023-04-11T23:27:59.911Z,70.85
2023-04-11T23:30:40.440Z,73.75
2023-04-11T23:33:09.317Z,70.55
2023-04-11T23:35:41.174Z,34.75
2023-04-11T23:38:20.710Z,20.70
2023-04-11T23:40:48.030Z,13.13
2023-04-11T23:43:15.352Z,11.38
2023-04-11T23:45:46.002Z,11.63
2023-04-11T23:50:47.428Z,9.88
2023-04-11T23:56:21.495Z,9.57
2023-04-11T23:59:05.057Z,10.23
